createdAt,value
2018-05-08T00:00:22.254Z,15.10
2018-05-08T00:02:49.862Z,14.30
2018-05-08T00:05:17.456Z,14.73
2018-05-08T00:07:45.049Z,13.17
2018-05-08T00:10:12.913Z,13.80
2018-05-08T00:12:40.525Z,14.03
2018-05-08T00:15:08.136Z,15.07
2018-05-08T00:17:35.789Z,14.83
2018-05-08T00:20:03.590Z,14.00
2018-05-08T00:22:31.189Z,13.50
2018-05-08T00:24:58.750Z,13.20
2018-05-08T00:27:26.343Z,14.17
2018-05-08T00:29:53.928Z,14.77
2018-05-08T00:32:21.678Z,14.50
2018-05-08T00:34:49.238Z,14.67
2018-05-08T00:37:17.011Z,14.63
2018-05-08T00:39:44.636Z,14.60
2018-05-08T00:42:12.260Z,15.00
2018-05-08T00:44:40.070Z,14.77
2018-05-08T00:47:07.653Z,14.80
2018-05-08T00:49:35.232Z,14.73
2018-05-08T00:52:02.994Z,14.80
2018-05-08T00:54:42.428Z,13.40
2018-05-08T00:57:10.002Z,12.50
2018-05-08T00:59:37.572Z,13.10
2018-05-08T01:02:05.157Z,12.47
2018-05-08T01:04:33.058Z,11.43
2018-05-08T01:07:00.649Z,11.97
2018-05-08T01:09:28.224Z,12.67
2018-05-08T01:11:55.803Z,13.03
2018-05-08T01:14:23.399Z,12.60
2018-05-08T01:16:50.980Z,12.47
2018-05-08T01:19:18.627Z,12.93
2018-05-08T01:21:46.203Z,13.37
2018-05-08T01:24:13.834Z,13.73
2018-05-08T01:26:41.587Z,14.17
2018-05-08T01:29:09.332Z,14.10
2018-05-08T01:31:36.945Z,14.33
2018-05-08T01:34:04.523Z,14.53
2018-05-08T01:36:32.286Z,15.23
2018-05-08T01:38:59.897Z,16.33
2018-05-08T01:41:27.468Z,16.10
2018-05-08T01:43:55.143Z,16.00
2018-05-08T01:46:22.960Z,17.27
2018-05-08T01:48:50.540Z,17.37
2018-05-08T01:51:18.294Z,18.93
2018-05-08T01:53:46.024Z,16.80
2018-05-08T01:56:13.832Z,14.07
2018-05-08T01:58:41.406Z,13.30
2018-05-08T02:01:08.968Z,13.47
2018-05-08T02:03:36.557Z,14.07
2018-05-08T02:06:04.432Z,14.63
2018-05-08T02:08:32.201Z,15.10
2018-05-08T02:10:59.774Z,14.87
2018-05-08T02:13:27.341Z,14.30
2018-05-08T02:15:55.076Z,14.37
2018-05-08T02:18:22.896Z,14.10
2018-05-08T02:20:50.722Z,15.03
2018-05-08T02:23:18.322Z,14.90
2018-05-08T02:25:46.052Z,15.47
2018-05-08T02:28:13.613Z,14.80
2018-05-08T02:30:41.387Z,15.60
2018-05-08T02:33:09.201Z,16.67
2018-05-08T02:35:36.852Z,17.10
2018-05-08T02:38:04.563Z,17.40
2018-05-08T02:40:32.151Z,17.90
2018-05-08T02:42:59.736Z,18.83
2018-05-08T02:45:27.497Z,20.10
2018-05-08T02:47:55.106Z,16.97
2018-05-08T02:50:22.936Z,17.30
2018-05-08T02:52:50.555Z,16.03
2018-05-08T02:55:18.404Z,15.37
2018-05-08T02:57:46.000Z,16.40
2018-05-08T03:00:13.908Z,15.90
2018-05-08T03:02:41.491Z,15.40
2018-05-08T03:05:09.082Z,15.23
2018-05-08T03:07:36.671Z,14.63
2018-05-08T03:10:04.272Z,13.50
2018-05-08T03:12:31.926Z,14.27
2018-05-08T03:14:59.512Z,14.03
2018-05-08T03:17:27.184Z,13.97
2018-05-08T03:19:54.768Z,14.00
2018-05-08T03:22:22.428Z,14.50
2018-05-08T03:24:49.981Z,15.63
2018-05-08T03:27:17.560Z,14.37
2018-05-08T03:29:45.203Z,14.90
2018-05-08T03:32:12.802Z,14.63
2018-05-08T03:34:40.759Z,15.23
2018-05-08T03:37:08.324Z,15.97
2018-05-08T03:39:35.910Z,16.93
2018-05-08T03:42:03.490Z,15.13
2018-05-08T03:44:31.060Z,14.97
2018-05-08T03:46:58.716Z,14.13
2018-05-08T03:49:26.300Z,13.33
2018-05-08T03:51:54.084Z,14.63
2018-05-08T03:54:21.819Z,14.47
2018-05-08T03:56:49.381Z,14.50
2018-05-08T03:59:16.957Z,13.77
2018-05-08T04:01:56.398Z,14.50
2018-05-08T04:04:35.805Z,14.90
2018-05-08T04:10:05.276Z,33.77
2018-05-08T04:12:32.849Z,28.83
2018-05-08T04:15:00.779Z,65.70
2018-05-08T04:17:28.371Z,69.77
2018-05-08T04:19:56.118Z,71.40
2018-05-08T04:22:23.690Z,78.63
2018-05-08T04:24:51.262Z,51.63
2018-05-08T04:27:19.632Z,43.63
2018-05-08T04:29:47.525Z,26.60
2018-05-08T04:32:15.142Z,19.17
2018-05-08T04:34:42.899Z,15.93
2018-05-08T04:37:10.607Z,14.77
2018-05-08T04:39:38.200Z,16.10
2018-05-08T04:42:05.776Z,14.00
2018-05-08T04:44:33.574Z,13.17
2018-05-08T04:47:01.168Z,12.07
2018-05-08T04:49:28.789Z,10.57
2018-05-08T04:51:56.348Z,10.27
2018-05-08T04:54:24.141Z,9.97
2018-05-08T04:56:51.961Z,10.73
2018-05-08T04:59:19.573Z,16.13
2018-05-08T05:01:47.176Z,31.13
2018-05-08T05:04:14.776Z,58.50
2018-05-08T05:06:42.524Z,57.97
2018-05-08T05:09:10.125Z,72.10
2018-05-08T05:11:37.837Z,66.67
2018-05-08T05:14:05.910Z,67.27
2018-05-08T05:16:34.403Z,61.40
2018-05-08T05:19:02.137Z,31.23
2018-05-08T05:21:29.748Z,29.10
2018-05-08T05:23:57.411Z,30.03
2018-05-08T05:26:25.003Z,25.57
2018-05-08T05:28:52.851Z,23.63
2018-05-08T05:31:20.425Z,19.27
2018-05-08T05:33:48.240Z,17.30
2018-05-08T05:36:15.801Z,19.33
2018-05-08T05:38:43.352Z,17.53
2018-05-08T05:41:11.172Z,17.47
2018-05-08T05:43:38.785Z,17.77
2018-05-08T05:46:06.349Z,18.70
2018-05-08T05:48:34.148Z,18.07
2018-05-08T05:51:01.696Z,18.70
2018-05-08T05:53:29.268Z,19.10
2018-05-08T05:55:56.852Z,18.13
2018-05-08T05:58:24.478Z,18.90
2018-05-08T06:00:52.100Z,18.00
2018-05-08T06:03:19.821Z,18.73
2018-05-08T06:05:47.466Z,16.17
2018-05-08T06:08:15.055Z,14.40
2018-05-08T06:10:42.637Z,14.43
2018-05-08T06:13:10.428Z,12.13
2018-05-08T06:15:38.068Z,12.50
2018-05-08T06:18:05.733Z,11.23
2018-05-08T06:20:33.332Z,15.30
2018-05-08T06:23:00.917Z,11.67
2018-05-08T06:25:28.719Z,10.47
2018-05-08T06:27:56.537Z,10.50
2018-05-08T06:30:24.147Z,9.67
2018-05-08T06:32:51.974Z,9.73
2018-05-08T06:35:19.565Z,10.37
2018-05-08T06:37:47.282Z,9.37
2018-05-08T06:40:14.878Z,9.47
2018-05-08T06:42:42.448Z,9.93
2018-05-08T06:45:10.270Z,8.90
2018-05-08T06:47:37.855Z,16.07
2018-05-08T06:50:05.534Z,10.37
2018-05-08T06:52:33.088Z,9.63
2018-05-08T06:55:00.741Z,8.90
2018-05-08T06:57:28.416Z,6.03
2018-05-08T06:59:55.994Z,5.20
2018-05-08T07:02:23.585Z,5.43
2018-05-08T07:04:51.312Z,5.33
2018-05-08T07:07:18.936Z,5.37
2018-05-08T07:09:46.556Z,5.87
2018-05-08T07:12:14.283Z,5.67
2018-05-08T07:14:42.173Z,5.77
2018-05-08T07:17:10.003Z,6.63
2018-05-08T07:19:37.593Z,6.87
2018-05-08T07:22:05.229Z,6.30
2018-05-08T07:24:33.055Z,5.50
2018-05-08T07:27:00.678Z,6.00
2018-05-08T07:29:28.252Z,5.43
2018-05-08T07:31:55.883Z,5.43
2018-05-08T07:34:23.630Z,6.43
2018-05-08T07:36:51.193Z,6.13
2018-05-08T07:39:18.766Z,6.23
2018-05-08T07:41:46.391Z,6.60
2018-05-08T07:44:14.216Z,5.67
2018-05-08T07:46:41.786Z,6.23
2018-05-08T07:49:09.361Z,5.83
2018-05-08T07:51:37.154Z,5.77
2018-05-08T07:54:04.972Z,5.20
2018-05-08T07:56:32.540Z,6.27
2018-05-08T07:59:00.199Z,5.10
2018-05-08T08:01:27.927Z,6.10
2018-05-08T08:03:55.534Z,5.67
2018-05-08T08:06:23.366Z,4.90
2018-05-08T08:08:51.181Z,4.97
2018-05-08T08:11:18.797Z,5.60
2018-05-08T08:13:46.388Z,9.50
2018-05-08T08:16:13.956Z,5.00
2018-05-08T08:18:41.753Z,5.50
2018-05-08T08:21:09.493Z,4.97
2018-05-08T08:23:37.290Z,6.43
2018-05-08T08:26:04.871Z,5.33
2018-05-08T08:28:32.730Z,5.30
2018-05-08T08:31:00.381Z,5.00
2018-05-08T08:33:28.130Z,5.57
2018-05-08T08:35:55.723Z,6.33
2018-05-08T08:38:23.501Z,5.50
2018-05-08T08:40:51.306Z,5.37
2018-05-08T08:43:19.238Z,5.50
2018-05-08T08:45:47.441Z,5.73
2018-05-08T08:48:15.122Z,4.70
2018-05-08T08:50:42.795Z,5.47
2018-05-08T08:53:11.512Z,5.13
2018-05-08T08:55:39.133Z,4.87
2018-05-08T08:58:06.743Z,4.80
2018-05-08T09:00:34.365Z,8.50
2018-05-08T09:03:01.998Z,21.90
2018-05-08T09:05:29.556Z,6.13
2018-05-08T09:07:57.124Z,5.47
2018-05-08T09:10:24.948Z,6.43
2018-05-08T09:12:52.504Z,8.87
2018-05-08T09:15:20.280Z,5.20
2018-05-08T09:17:48.098Z,5.70
2018-05-08T09:20:16.093Z,6.23
2018-05-08T09:22:43.749Z,7.27
2018-05-08T09:25:11.959Z,5.83
2018-05-08T09:27:39.655Z,5.30
2018-05-08T09:30:07.300Z,5.23
2018-05-08T09:32:34.895Z,5.13
2018-05-08T09:35:02.900Z,4.87
2018-05-08T09:37:30.593Z,5.47
2018-05-08T09:39:58.274Z,13.43
2018-05-08T09:42:26.386Z,4.90
2018-05-08T09:44:53.980Z,4.63
2018-05-08T09:47:21.568Z,4.90
2018-05-08T09:49:49.146Z,5.57
2018-05-08T09:52:17.962Z,5.07
2018-05-08T09:54:45.607Z,9.47
2018-05-08T09:57:14.000Z,5.47
2018-05-08T09:59:41.637Z,5.23
2018-05-08T10:02:09.261Z,4.53
2018-05-08T10:04:37.156Z,5.13
2018-05-08T10:07:04.828Z,4.70
2018-05-08T10:09:32.399Z,4.43
2018-05-08T10:12:00.209Z,5.00
2018-05-08T10:14:27.787Z,5.37
2018-05-08T10:16:55.386Z,6.23
2018-05-08T10:19:23.063Z,5.60
2018-05-08T10:21:50.694Z,5.60
2018-05-08T10:24:18.269Z,5.10
2018-05-08T10:26:45.895Z,12.60
2018-05-08T10:29:13.521Z,9.23
2018-05-08T10:31:41.179Z,6.00
2018-05-08T10:34:09.766Z,5.83
2018-05-08T10:36:38.328Z,5.30
2018-05-08T10:39:06.087Z,5.30
2018-05-08T10:41:33.778Z,5.27
2018-05-08T10:44:01.974Z,5.57
2018-05-08T10:46:30.891Z,4.80
2018-05-08T10:48:58.464Z,7.40
2018-05-08T10:51:26.212Z,5.60
2018-05-08T10:53:54.157Z,5.50
2018-05-08T10:56:22.083Z,5.07
2018-05-08T10:58:49.869Z,5.20
2018-05-08T11:01:17.603Z,5.77
2018-05-08T11:03:46.807Z,4.93
2018-05-08T11:06:18.137Z,6.10
2018-05-08T11:08:45.778Z,5.90
2018-05-08T11:11:13.403Z,6.83
2018-05-08T11:13:41.195Z,6.10
2018-05-08T11:16:09.348Z,5.97
2018-05-08T11:18:36.988Z,6.20
2018-05-08T11:21:05.155Z,7.70
2018-05-08T11:23:35.311Z,7.37
2018-05-08T11:26:03.194Z,7.10
2018-05-08T11:28:30.912Z,6.70
2018-05-08T11:30:58.492Z,6.73
2018-05-08T11:33:26.057Z,7.77
2018-05-08T11:35:54.694Z,8.70
2018-05-08T11:38:22.266Z,7.63
2018-05-08T11:40:50.110Z,7.77
2018-05-08T11:43:17.912Z,7.23
2018-05-08T11:45:45.629Z,7.53
2018-05-08T11:48:13.438Z,8.27
2018-05-08T11:50:41.128Z,8.37
2018-05-08T11:53:09.907Z,8.53
2018-05-08T11:55:38.715Z,8.07
2018-05-08T11:58:07.291Z,8.20
2018-05-08T12:00:35.069Z,9.13
2018-05-08T12:03:02.914Z,10.33
2018-05-08T12:05:30.532Z,9.77
2018-05-08T12:07:58.094Z,8.83
2018-05-08T12:10:25.674Z,8.73
2018-05-08T12:12:53.365Z,8.87
2018-05-08T12:15:20.956Z,9.07
2018-05-08T12:17:48.713Z,9.93
2018-05-08T12:20:16.296Z,10.03
2018-05-08T12:22:43.962Z,10.57
2018-05-08T12:25:11.545Z,10.17
2018-05-08T12:27:39.857Z,10.70
2018-05-08T12:30:07.945Z,12.20
2018-05-08T12:32:35.809Z,11.90
2018-05-08T12:35:04.102Z,11.20
2018-05-08T12:37:31.867Z,10.57
2018-05-08T12:39:59.567Z,10.83
2018-05-08T12:42:27.245Z,11.73
2018-05-08T12:44:57.293Z,12.10
2018-05-08T12:47:25.229Z,11.20
2018-05-08T12:49:52.826Z,10.73
2018-05-08T12:52:24.078Z,10.40
2018-05-08T12:54:51.654Z,9.27
2018-05-08T12:57:19.225Z,8.97
2018-05-08T12:59:47.569Z,9.00
2018-05-08T13:02:15.238Z,9.30
2018-05-08T13:04:46.081Z,10.40
2018-05-08T13:07:15.559Z,10.27
2018-05-08T13:09:46.257Z,10.43
2018-05-08T13:12:13.837Z,11.33
2018-05-08T13:14:41.671Z,12.23
2018-05-08T13:17:09.231Z,12.63
2018-05-08T13:19:36.905Z,13.43
2018-05-08T13:22:04.517Z,15.13
2018-05-08T13:24:32.121Z,16.10
2018-05-08T13:26:59.711Z,16.20
2018-05-08T13:29:27.276Z,16.30
2018-05-08T13:31:54.858Z,15.27
2018-05-08T13:34:22.437Z,14.07
2018-05-08T13:36:50.116Z,13.50
2018-05-08T13:39:17.952Z,13.77
2018-05-08T13:41:45.529Z,14.00
2018-05-08T13:44:13.288Z,15.60
2018-05-08T13:46:40.849Z,16.80
2018-05-08T13:49:08.435Z,16.40
2018-05-08T13:51:36.243Z,13.23
2018-05-08T13:54:03.893Z,9.67
2018-05-08T13:56:31.485Z,15.33
2018-05-08T13:58:59.061Z,15.03
2018-05-08T14:01:26.648Z,15.30
2018-05-08T14:03:54.231Z,15.80
2018-05-08T14:06:22.051Z,15.60
2018-05-08T14:08:49.625Z,14.43
2018-05-08T14:11:17.273Z,14.37
2018-05-08T14:13:44.852Z,14.77
2018-05-08T14:16:12.785Z,14.40
2018-05-08T14:18:40.373Z,14.70
2018-05-08T14:21:07.935Z,14.73
2018-05-08T14:23:35.759Z,13.80
2018-05-08T14:26:03.356Z,16.30
2018-05-08T14:28:31.004Z,15.17
2018-05-08T14:30:58.861Z,15.33
2018-05-08T14:33:26.424Z,15.03
2018-05-08T14:35:54.269Z,14.77
2018-05-08T14:38:21.869Z,12.93
2018-05-08T14:40:49.428Z,14.10
2018-05-08T14:43:17.026Z,14.27
2018-05-08T14:45:44.600Z,13.10
2018-05-08T14:48:12.173Z,13.30
2018-05-08T14:50:39.748Z,14.77
2018-05-08T14:53:07.391Z,13.53
2018-05-08T14:55:34.964Z,13.17
2018-05-08T14:58:03.928Z,12.63
2018-05-08T15:00:32.046Z,11.60
2018-05-08T15:02:59.608Z,11.77
2018-05-08T15:05:27.280Z,12.50
2018-05-08T15:07:55.715Z,12.03
2018-05-08T15:10:23.385Z,8.63
2018-05-08T15:12:50.957Z,9.27
2018-05-08T15:15:18.754Z,8.73
2018-05-08T15:17:46.432Z,8.50
2018-05-08T15:20:14.113Z,8.60
2018-05-08T15:22:41.677Z,7.87
2018-05-08T15:25:09.245Z,8.00
2018-05-08T15:27:37.066Z,8.80
2018-05-08T15:30:04.729Z,9.47
2018-05-08T15:32:32.540Z,9.30
2018-05-08T15:35:00.378Z,10.33
2018-05-08T15:37:28.079Z,8.80
2018-05-08T15:39:55.647Z,9.10
2018-05-08T15:42:23.488Z,9.53
2018-05-08T15:44:51.326Z,9.90
2018-05-08T15:47:19.150Z,10.23
2018-05-08T15:49:46.791Z,11.00
2018-05-08T15:52:14.396Z,11.13
2018-05-08T15:54:42.057Z,11.53
2018-05-08T15:57:09.826Z,10.90
2018-05-08T15:59:37.403Z,11.00
2018-05-08T16:02:05.240Z,11.07
2018-05-08T16:04:33.207Z,11.07
2018-05-08T16:07:00.839Z,12.77
2018-05-08T16:09:28.412Z,11.80
2018-05-08T16:11:56.204Z,12.30
2018-05-08T16:14:23.775Z,12.93
2018-05-08T16:16:51.340Z,12.17
2018-05-08T16:19:19.140Z,10.40
2018-05-08T16:21:46.741Z,8.27
2018-05-08T16:24:14.529Z,7.23
2018-05-08T16:26:42.234Z,6.20
2018-05-08T16:29:10.034Z,6.20
2018-05-08T16:31:37.717Z,6.00
2018-05-08T16:34:05.282Z,6.53
2018-05-08T16:36:32.832Z,6.27
2018-05-08T16:39:00.393Z,5.70
2018-05-08T16:41:28.094Z,5.47
2018-05-08T16:43:55.822Z,6.77
2018-05-08T16:46:24.009Z,6.70
2018-05-08T16:48:51.864Z,6.20
2018-05-08T16:51:19.456Z,7.27
2018-05-08T16:53:47.298Z,7.97
2018-05-08T16:56:16.010Z,7.70
2018-05-08T16:58:43.813Z,6.43
2018-05-08T17:01:11.590Z,6.13
2018-05-08T17:03:39.258Z,5.17
2018-05-08T17:06:07.008Z,5.03
2018-05-08T17:08:34.812Z,5.07
2018-05-08T17:11:02.360Z,5.07
2018-05-08T17:13:30.147Z,6.17
2018-05-08T17:15:58.169Z,5.37
2018-05-08T17:18:25.986Z,5.43
2018-05-08T17:20:53.807Z,5.33
2018-05-08T17:23:21.428Z,6.03
2018-05-08T17:25:49.162Z,5.97
2018-05-08T17:28:16.741Z,5.90
2018-05-08T17:30:44.309Z,7.37
2018-05-08T17:33:11.885Z,7.40
2018-05-08T17:35:39.563Z,8.53
2018-05-08T17:38:07.294Z,7.70
2018-05-08T17:40:35.049Z,7.53
2018-05-08T17:43:02.598Z,6.90
2018-05-08T17:45:30.232Z,7.23
2018-05-08T17:47:57.805Z,6.67
2018-05-08T17:50:25.384Z,6.10
2018-05-08T17:52:53.024Z,6.73
2018-05-08T17:55:20.706Z,7.63
2018-05-08T17:57:48.489Z,7.60
2018-05-08T18:00:16.085Z,7.30
2018-05-08T18:02:43.665Z,7.47
2018-05-08T18:05:11.320Z,7.73
2018-05-08T18:07:39.157Z,8.90
2018-05-08T18:10:06.969Z,8.10
2018-05-08T18:12:34.785Z,8.87
2018-05-08T18:15:02.439Z,8.90
2018-05-08T18:17:30.011Z,9.20
2018-05-08T18:19:58.147Z,9.63
2018-05-08T18:22:26.263Z,9.97
2018-05-08T18:24:54.057Z,9.27
2018-05-08T18:27:21.792Z,9.30
2018-05-08T18:29:49.532Z,10.10
2018-05-08T18:32:17.173Z,10.00
2018-05-08T18:34:44.810Z,11.03
2018-05-08T18:37:12.449Z,11.33
2018-05-08T18:39:40.289Z,11.70
2018-05-08T18:42:07.982Z,11.07
2018-05-08T18:44:35.588Z,11.77
2018-05-08T18:47:04.079Z,11.23
2018-05-08T18:49:32.760Z,11.23
2018-05-08T18:52:00.493Z,11.20
2018-05-08T18:54:28.304Z,11.70
2018-05-08T18:56:56.226Z,13.13
2018-05-08T18:59:24.043Z,12.87
2018-05-08T19:01:52.049Z,11.27
2018-05-08T19:04:19.914Z,11.87
2018-05-08T19:06:47.786Z,12.47
2018-05-08T19:09:15.428Z,11.83
2018-05-08T19:11:43.045Z,12.17
2018-05-08T19:14:10.826Z,14.23
2018-05-08T19:16:38.405Z,12.60
2018-05-08T19:19:11.621Z,11.90
2018-05-08T19:21:39.254Z,11.77
2018-05-08T19:24:12.665Z,11.67
2018-05-08T19:26:40.539Z,13.77
2018-05-08T19:29:14.025Z,13.27
2018-05-08T19:31:41.656Z,14.20
2018-05-08T19:34:09.227Z,14.07
2018-05-08T19:36:42.586Z,13.50
2018-05-08T19:39:10.206Z,12.60
2018-05-08T19:41:37.949Z,13.63
2018-05-08T19:44:05.561Z,13.97
2018-05-08T19:46:33.183Z,13.60
2018-05-08T19:49:01.212Z,15.67
2018-05-08T19:51:29.107Z,15.80
2018-05-08T19:53:57.017Z,13.63
2018-05-08T19:56:25.126Z,12.90
2018-05-08T19:58:52.692Z,12.33
2018-05-08T20:01:20.292Z,12.40
2018-05-08T20:03:48.338Z,10.57
2018-05-08T20:06:15.994Z,10.33
2018-05-08T20:08:43.645Z,10.70
2018-05-08T20:11:11.308Z,11.83
2018-05-08T20:13:39.670Z,11.43
2018-05-08T20:16:07.604Z,11.37
2018-05-08T20:18:35.227Z,11.73
2018-05-08T20:21:02.914Z,12.63
2018-05-08T20:23:30.434Z,14.37
2018-05-08T20:25:58.044Z,13.60
2018-05-08T20:28:25.888Z,13.43
2018-05-08T20:30:53.456Z,14.40
2018-05-08T20:33:21.122Z,14.37
2018-05-08T20:35:48.717Z,14.23
2018-05-08T20:38:16.458Z,12.80
2018-05-08T20:40:44.071Z,12.67
2018-05-08T20:43:11.637Z,12.83
2018-05-08T20:45:39.252Z,12.80
2018-05-08T20:48:06.908Z,12.20
2018-05-08T20:50:34.550Z,13.93
2018-05-08T20:53:02.150Z,14.43
2018-05-08T20:55:29.839Z,14.43
2018-05-08T20:57:57.493Z,13.77
2018-05-08T21:00:25.064Z,14.77
2018-05-08T21:02:52.724Z,13.57
2018-05-08T21:05:20.332Z,13.53
2018-05-08T21:07:47.965Z,13.80
2018-05-08T21:10:15.793Z,12.20
2018-05-08T21:12:43.410Z,12.83
2018-05-08T21:15:11.396Z,12.80
2018-05-08T21:17:39.010Z,12.57
2018-05-08T21:20:07.045Z,13.77
2018-05-08T21:22:35.848Z,14.73
2018-05-08T21:25:03.593Z,13.83
2018-05-08T21:27:36.855Z,14.80
2018-05-08T21:30:10.036Z,14.10
2018-05-08T21:32:38.603Z,15.43
2018-05-08T21:35:06.832Z,14.63
2018-05-08T21:37:34.413Z,15.47
2018-05-08T21:40:02.138Z,15.57
2018-05-08T21:42:29.979Z,19.33
2018-05-08T21:44:57.697Z,18.33
2018-05-08T21:47:25.277Z,15.60
2018-05-08T21:49:53.040Z,14.87
2018-05-08T21:52:20.645Z,16.03
2018-05-08T21:54:48.469Z,16.37
2018-05-08T21:57:16.289Z,15.30
2018-05-08T21:59:44.107Z,16.57
2018-05-08T22:02:11.694Z,14.57
2018-05-08T22:04:39.260Z,15.43
2018-05-08T22:07:06.853Z,14.87
2018-05-08T22:09:34.668Z,15.60
2018-05-08T22:12:02.497Z,16.03
2018-05-08T22:14:30.064Z,16.03
2018-05-08T22:16:57.934Z,15.20
2018-05-08T22:19:25.527Z,15.00
2018-05-08T22:21:53.370Z,14.57
2018-05-08T22:24:21.108Z,14.70
2018-05-08T22:26:48.688Z,13.40
2018-05-08T22:29:16.257Z,13.50
2018-05-08T22:31:44.043Z,13.53
2018-05-08T22:34:11.684Z,14.60
2018-05-08T22:36:39.478Z,14.07
2018-05-08T22:39:07.371Z,13.50
2018-05-08T22:41:34.966Z,14.67
2018-05-08T22:44:02.894Z,15.43
2018-05-08T22:46:30.615Z,15.37
2018-05-08T22:48:58.357Z,14.97
2018-05-08T22:51:25.988Z,15.33
2018-05-08T22:53:53.609Z,16.33
2018-05-08T22:56:21.160Z,17.00
2018-05-08T22:58:49.142Z,17.10
2018-05-08T23:01:16.765Z,16.43
2018-05-08T23:03:44.415Z,15.87
2018-05-08T23:06:11.990Z,17.07
2018-05-08T23:08:39.709Z,16.97
2018-05-08T23:11:07.341Z,16.53
2018-05-08T23:13:34.909Z,17.13
2018-05-08T23:16:02.559Z,16.47
2018-05-08T23:18:30.121Z,17.20
2018-05-08T23:20:57.841Z,16.60
2018-05-08T23:23:25.408Z,16.70
2018-05-08T23:25:53.272Z,17.27
2018-05-08T23:28:20.951Z,17.13
2018-05-08T23:30:48.633Z,18.13
2018-05-08T23:33:16.220Z,17.57
2018-05-08T23:35:44.119Z,18.17
2018-05-08T23:38:11.809Z,17.33
2018-05-08T23:40:39.387Z,17.20
2018-05-08T23:43:07.086Z,16.30
2018-05-08T23:45:34.646Z,17.97
2018-05-08T23:48:02.220Z,16.33
2018-05-08T23:50:30.031Z,16.63
2018-05-08T23:52:57.719Z,17.77
2018-05-08T23:55:25.981Z,17.80
2018-05-08T23:57:54.005Z,17.40
